Aérodrome :
LOGIN :

S'inscrire | Disclaimer

   EN    FR    IT 

 










Légende :    VFR   VFR Marginal   IFR   IFR Intensif   IFR Très Intensif
Visi : 
Plafond : 
>= 8 km
>= 3000ft
5 à 8 km
1000 à 3000 ft
1500m à 5 km
500 à 1000 ft
800 à 1500m
200 à 500 ft
< 800m
< 200 ft
Symboles :   Orages  Brouillard  Fortes neiges  Fortes précipitations  Vent > 20 kt
SIGMETs :   Divers  Orages  Givrage  Turbulence  Onde Orograph.  Cendres Volcan.







- Altitude de l'aérodrome : 171 ft
- Code IATA : EGC
- Voir les cartes d'approche


LFBE - Bergerac

DERNIER METAR :
  • 222000Z AUTO 25005KT CAVOK 20/14 Q1016 TEMPO 4000 -SHRA BKN060CB

METARs EXPIRÉS :
  • 221930Z AUTO 25003KT CAVOK 21/14 Q1015 TEMPO VRB15G25KT 2500 -TSRA BKN050CB
  • 221900Z AUTO 25003KT CAVOK 21/14 Q1015 TEMPO VRB15G25KT 2500 -TSRA BKN050CB
  • 221830Z AUTO VRB01KT CAVOK 23/15 Q1015 TEMPO VRB15G25KT 2500 -TSRA BKN050CB
  • 221800Z AUTO 14002KT CAVOK 24/15 Q1014 NOSIG
  • 221730Z AUTO VRB01KT CAVOK 24/15 Q1014 NOSIG

TAF AMD TAF LFBE
Valide du 22 à 19h jusqu'au 23 à 12h UTC


221930Z 2219/2312 23008KT CAVOK
PROB40
TEMPO 2220/2306 4000 -SHRA BKN070TCU
PROB30
TEMPO 2221/2304 -TSRA BKN060CB
BECMG 2304/2306 BKN010
BECMG 2308/2310 BKN020
Pas de NOTAMs connus pour ce terrain.
1 SIGMET publié pour la FIR Bordeaux (LFBB) :
 
Orages noyés dans la masse
LFBB SIGMET 1 VALID 221900/222100 LFPW
LFBB BORDEAUX FIR/UIR EMBD TS FCST WI N4245 E00000 - N4300 W00145 - N4430 W00145 - N4430 W00100 - N4345 E00100 - N4245 E00000 TOP FL350 STNR INTSF=



MET'MAP, la Météo Aéronautique d'un coup d'oeil ! - Copyright ORBIFLY Décembre 2007 - Disclaimer

ORBIFLY MET'MAP TEAM :

Programmation & Développement : Alexandra Zaïnal
Conception & Développement : Baudouin d'Aumeries
Co-Programmation & Développement : Marc-Olivier Méhu
Soutien technique & logistique : Manuel Goepfert

Contact : metmap@orbifly.com




SOURCES & CREDITS :

   NOAA